sensor_id;sensor_type;location;lat;lon;timestamp;temperature;humidity
17565;DHT22;62994;52.126;5.596;2023-08-17T00:00:56;20.90;99.90
17565;DHT22;62994;52.126;5.596;2023-08-17T00:03:28;20.80;99.90
17565;DHT22;62994;52.126;5.596;2023-08-17T00:05:55;20.80;99.90
17565;DHT22;62994;52.126;5.596;2023-08-17T00:08:24;20.80;99.90
17565;DHT22;62994;52.126;5.596;2023-08-17T00:10:56;20.70;99.90
17565;DHT22;62994;52.126;5.596;2023-08-17T00:13:23;20.70;99.90
17565;DHT22;62994;52.126;5.596;2023-08-17T00:15:50;20.60;99.90
17565;DHT22;62994;52.126;5.596;2023-08-17T00:18:17;20.60;99.90
17565;DHT22;62994;52.126;5.596;2023-08-17T00:20:48;20.60;99.90
17565;DHT22;62994;52.126;5.596;2023-08-17T00:23:15;20.60;99.90
17565;DHT22;62994;52.126;5.596;2023-08-17T00:25:43;20.50;99.90
17565;DHT22;62994;52.126;5.596;2023-08-17T00:28:12;20.50;99.90
17565;DHT22;62994;52.126;5.596;2023-08-17T00:30:39;20.40;99.90
17565;DHT22;62994;52.126;5.596;2023-08-17T00:33:06;20.50;99.90
17565;DHT22;62994;52.126;5.596;2023-08-17T00:35:33;20.50;99.90
17565;DHT22;62994;52.126;5.596;2023-08-17T00:38:01;20.50;99.90
17565;DHT22;62994;52.126;5.596;2023-08-17T00:40:28;20.40;99.90
17565;DHT22;62994;52.126;5.596;2023-08-17T00:42:55;20.30;99.90
17565;DHT22;62994;52.126;5.596;2023-08-17T00:45:23;20.30;99.90
17565;DHT22;62994;52.126;5.596;2023-08-17T00:47:50;20.30;99.90
17565;DHT22;62994;52.126;5.596;2023-08-17T00:50:17;20.20;99.90
17565;DHT22;62994;52.126;5.596;2023-08-17T00:52:49;20.30;99.90
17565;DHT22;62994;52.126;5.596;2023-08-17T00:55:18;20.30;99.90
17565;DHT22;62994;52.126;5.596;2023-08-17T00:57:45;20.30;99.90
17565;DHT22;62994;52.126;5.596;2023-08-17T01:00:13;20.20;99.90
17565;DHT22;62994;52.126;5.596;2023-08-17T01:02:41;20.20;99.90
17565;DHT22;62994;52.126;5.596;2023-08-17T01:05:08;20.20;99.90
17565;DHT22;62994;52.126;5.596;2023-08-17T01:07:35;20.20;99.90
17565;DHT22;62994;52.126;5.596;2023-08-17T01:10:04;20.10;99.90
17565;DHT22;62994;52.126;5.596;2023-08-17T01:12:40;20.10;99.90
17565;DHT22;62994;52.126;5.596;2023-08-17T01:15:11;20.10;99.90
17565;DHT22;62994;52.126;5.596;2023-08-17T01:17:43;20.10;99.90
17565;DHT22;62994;52.126;5.596;2023-08-17T01:20:15;20.20;99.90
17565;DHT22;62994;52.126;5.596;2023-08-17T01:22:45;20.20;99.90
17565;DHT22;62994;52.126;5.596;2023-08-17T01:25:14;20.20;99.90
17565;DHT22;62994;52.126;5.596;2023-08-17T01:27:44;20.20;99.90
17565;DHT22;62994;52.126;5.596;2023-08-17T01:30:16;20.20;99.90
17565;DHT22;62994;52.126;5.596;2023-08-17T01:32:48;20.20;99.90
17565;DHT22;62994;52.126;5.596;2023-08-17T01:35:24;20.30;99.90
17565;DHT22;62994;52.126;5.596;2023-08-17T01:37:58;20.20;99.90
17565;DHT22;62994;52.126;5.596;2023-08-17T01:40:28;20.20;99.90
17565;DHT22;62994;52.126;5.596;2023-08-17T01:42:58;20.30;99.90
17565;DHT22;62994;52.126;5.596;2023-08-17T01:45:25;20.20;99.90
17565;DHT22;62994;52.126;5.596;2023-08-17T01:47:54;20.20;99.90
17565;DHT22;62994;52.126;5.596;2023-08-17T01:50:21;20.10;99.90
17565;DHT22;62994;52.126;5.596;2023-08-17T01:52:50;20.10;99.90
17565;DHT22;62994;52.126;5.596;2023-08-17T01:55:18;20.10;99.90
17565;DHT22;62994;52.126;5.596;2023-08-17T01:57:46;20.10;99.90
17565;DHT22;62994;52.126;5.596;2023-08-17T02:00:14;20.00;99.90
17565;DHT22;62994;52.126;5.596;2023-08-17T02:02:41;20.00;99.90
17565;DHT22;62994;52.126;5.596;2023-08-17T02:05:13;20.00;99.90
17565;DHT22;62994;52.126;5.596;2023-08-17T02:07:42;20.00;99.90
17565;DHT22;62994;52.126;5.596;2023-08-17T02:10:09;19.90;99.90
17565;DHT22;62994;52.126;5.596;2023-08-17T02:12:36;19.90;99.90
17565;DHT22;62994;52.126;5.596;2023-08-17T02:15:06;19.80;99.90
17565;DHT22;62994;52.126;5.596;2023-08-17T02:17:33;19.80;99.90
17565;DHT22;62994;52.126;5.596;2023-08-17T02:20:00;19.80;99.90
17565;DHT22;62994;52.126;5.596;2023-08-17T02:22:28;19.70;99.90
17565;DHT22;62994;52.126;5.596;2023-08-17T02:24:59;19.70;99.90
17565;DHT22;62994;52.126;5.596;2023-08-17T02:27:26;19.70;99.90
17565;DHT22;62994;52.126;5.596;2023-08-17T02:29:56;19.60;99.90
17565;DHT22;62994;52.126;5.596;2023-08-17T02:32:24;19.50;99.90
17565;DHT22;62994;52.126;5.596;2023-08-17T02:34:51;19.50;99.90
17565;DHT22;62994;52.126;5.596;2023-08-17T02:37:18;19.50;99.90
17565;DHT22;62994;52.126;5.596;2023-08-17T02:39:45;19.50;99.90
17565;DHT22;62994;52.126;5.596;2023-08-17T02:42:12;19.50;99.90
17565;DHT22;62994;52.126;5.596;2023-08-17T02:44:39;19.40;99.90
17565;DHT22;62994;52.126;5.596;2023-08-17T02:47:06;19.40;99.90
17565;DHT22;62994;52.126;5.596;2023-08-17T02:49:35;19.40;99.90
17565;DHT22;62994;52.126;5.596;2023-08-17T02:52:02;19.40;99.90
17565;DHT22;62994;52.126;5.596;2023-08-17T02:54:29;19.40;99.90
17565;DHT22;62994;52.126;5.596;2023-08-17T02:56:57;19.50;99.90
17565;DHT22;62994;52.126;5.596;2023-08-17T02:59:25;19.40;99.90
17565;DHT22;62994;52.126;5.596;2023-08-17T03:01:53;19.40;99.90
17565;DHT22;62994;52.126;5.596;2023-08-17T03:04:21;19.40;99.90
17565;DHT22;62994;52.126;5.596;2023-08-17T03:06:52;19.40;99.90
17565;DHT22;62994;52.126;5.596;2023-08-17T03:09:24;19.50;99.90
17565;DHT22;62994;52.126;5.596;2023-08-17T03:11:51;19.40;99.90
17565;DHT22;62994;52.126;5.596;2023-08-17T03:14:18;19.50;99.90
17565;DHT22;62994;52.126;5.596;2023-08-17T03:16:45;19.40;99.90
17565;DHT22;62994;52.126;5.596;2023-08-17T03:19:12;19.50;99.90
17565;DHT22;62994;52.126;5.596;2023-08-17T03:21:38;19.40;99.90
17565;DHT22;62994;52.126;5.596;2023-08-17T03:24:13;19.40;99.90
17565;DHT22;62994;52.126;5.596;2023-08-17T03:26:40;19.40;99.90
17565;DHT22;62994;52.126;5.596;2023-08-17T03:29:07;19.40;99.90
17565;DHT22;62994;52.126;5.596;2023-08-17T03:31:35;19.40;99.90
17565;DHT22;62994;52.126;5.596;2023-08-17T03:34:02;19.30;99.90
17565;DHT22;62994;52.126;5.596;2023-08-17T03:36:29;19.40;99.90
17565;DHT22;62994;52.126;5.596;2023-08-17T03:38:56;19.30;99.90
17565;DHT22;62994;52.126;5.596;2023-08-17T03:41:26;19.20;99.90
17565;DHT22;62994;52.126;5.596;2023-08-17T03:43:53;19.20;99.90
17565;DHT22;62994;52.126;5.596;2023-08-17T03:46:20;19.20;99.90
17565;DHT22;62994;52.126;5.596;2023-08-17T03:48:46;19.10;99.90
17565;DHT22;62994;52.126;5.596;2023-08-17T03:51:17;19.10;99.90
17565;DHT22;62994;52.126;5.596;2023-08-17T03:53:49;19.00;99.90
17565;DHT22;62994;52.126;5.596;2023-08-17T03:56:30;19.00;99.90
17565;DHT22;62994;52.126;5.596;2023-08-17T03:58:57;19.00;99.90
17565;DHT22;62994;52.126;5.596;2023-08-17T04:01:24;19.00;99.90
17565;DHT22;62994;52.126;5.596;2023-08-17T04:03:51;18.90;99.90
17565;DHT22;62994;52.126;5.596;2023-08-17T04:06:18;18.90;99.90
17565;DHT22;62994;52.126;5.596;2023-08-17T04:08:45;18.90;99.90
17565;DHT22;62994;52.126;5.596;2023-08-17T04:11:12;18.90;99.90
17565;DHT22;62994;52.126;5.596;2023-08-17T04:13:40;18.90;99.90
17565;DHT22;62994;52.126;5.596;2023-08-17T04:16:07;18.90;99.90
17565;DHT22;62994;52.126;5.596;2023-08-17T04:18:34;19.00;99.90
17565;DHT22;62994;52.126;5.596;2023-08-17T04:21:02;19.00;99.90
17565;DHT22;62994;52.126;5.596;2023-08-17T04:23:29;19.00;99.90
17565;DHT22;62994;52.126;5.596;2023-08-17T04:25:56;19.00;99.90
17565;DHT22;62994;52.126;5.596;2023-08-17T04:28:26;19.00;99.90
17565;DHT22;62994;52.126;5.596;2023-08-17T04:30:54;19.00;99.90
17565;DHT22;62994;52.126;5.596;2023-08-17T04:33:22;19.00;99.90
17565;DHT22;62994;52.126;5.596;2023-08-17T04:35:48;19.00;99.90
17565;DHT22;62994;52.126;5.596;2023-08-17T04:38:15;18.90;99.90
17565;DHT22;62994;52.126;5.596;2023-08-17T04:40:53;18.90;99.90
17565;DHT22;62994;52.126;5.596;2023-08-17T04:43:20;18.90;99.90
17565;DHT22;62994;52.126;5.596;2023-08-17T04:45:47;18.90;99.90
17565;DHT22;62994;52.126;5.596;2023-08-17T04:48:15;18.90;99.90
17565;DHT22;62994;52.126;5.596;2023-08-17T04:50:42;18.90;99.90
17565;DHT22;62994;52.126;5.596;2023-08-17T04:53:09;18.90;99.90
17565;DHT22;62994;52.126;5.596;2023-08-17T04:55:36;18.90;99.90
17565;DHT22;62994;52.126;5.596;2023-08-17T04:58:03;18.90;99.90
17565;DHT22;62994;52.126;5.596;2023-08-17T05:00:32;18.90;99.90
17565;DHT22;62994;52.126;5.596;2023-08-17T05:03:04;18.90;99.90
17565;DHT22;62994;52.126;5.596;2023-08-17T05:05:41;18.90;99.90
17565;DHT22;62994;52.126;5.596;2023-08-17T05:08:13;19.00;99.90
17565;DHT22;62994;52.126;5.596;2023-08-17T05:10:40;18.90;99.90
17565;DHT22;62994;52.126;5.596;2023-08-17T05:13:07;18.90;99.90
17565;DHT22;62994;52.126;5.596;2023-08-17T05:15:39;18.90;99.90
17565;DHT22;62994;52.126;5.596;2023-08-17T05:18:05;19.00;99.90
17565;DHT22;62994;52.126;5.596;2023-08-17T05:20:32;19.00;99.90
17565;DHT22;62994;52.126;5.596;2023-08-17T05:23:01;18.90;99.90
17565;DHT22;62994;52.126;5.596;2023-08-17T05:25:28;18.90;99.90
17565;DHT22;62994;52.126;5.596;2023-08-17T05:27:56;18.90;99.90
17565;DHT22;62994;52.126;5.596;2023-08-17T05:30:23;18.90;99.90
17565;DHT22;62994;52.126;5.596;2023-08-17T05:32:50;18.80;99.90
17565;DHT22;62994;52.126;5.596;2023-08-17T05:35:17;18.80;99.90
17565;DHT22;62994;52.126;5.596;2023-08-17T05:37:44;18.80;99.90
17565;DHT22;62994;52.126;5.596;2023-08-17T05:40:12;18.90;99.90
17565;DHT22;62994;52.126;5.596;2023-08-17T05:42:40;18.90;99.90
17565;DHT22;62994;52.126;5.596;2023-08-17T05:45:08;18.80;99.90
17565;DHT22;62994;52.126;5.596;2023-08-17T05:47:37;18.80;99.90
17565;DHT22;62994;52.126;5.596;2023-08-17T05:50:05;18.80;99.90
17565;DHT22;62994;52.126;5.596;2023-08-17T05:52:32;18.80;99.90
17565;DHT22;62994;52.126;5.596;2023-08-17T05:54:59;18.80;99.90
17565;DHT22;62994;52.126;5.596;2023-08-17T05:57:30;18.80;99.90
17565;DHT22;62994;52.126;5.596;2023-08-17T05:59:57;18.80;99.90
17565;DHT22;62994;52.126;5.596;2023-08-17T06:02:25;18.80;99.90
17565;DHT22;62994;52.126;5.596;2023-08-17T06:04:54;18.80;99.90
17565;DHT22;62994;52.126;5.596;2023-08-17T06:07:21;18.80;99.90
17565;DHT22;62994;52.126;5.596;2023-08-17T06:09:48;18.80;99.90
17565;DHT22;62994;52.126;5.596;2023-08-17T06:12:15;18.90;99.90
17565;DHT22;62994;52.126;5.596;2023-08-17T06:14:49;18.80;99.90
17565;DHT22;62994;52.126;5.596;2023-08-17T06:17:16;18.90;99.90
17565;DHT22;62994;52.126;5.596;2023-08-17T06:19:48;18.90;99.90
17565;DHT22;62994;52.126;5.596;2023-08-17T06:22:15;19.00;99.90
17565;DHT22;62994;52.126;5.596;2023-08-17T06:24:42;18.90;99.90
17565;DHT22;62994;52.126;5.596;2023-08-17T06:27:14;18.90;99.90
17565;DHT22;62994;52.126;5.596;2023-08-17T06:29:44;19.00;99.90
17565;DHT22;62994;52.126;5.596;2023-08-17T06:32:16;19.00;99.90
17565;DHT22;62994;52.126;5.596;2023-08-17T06:34:47;19.00;99.90
17565;DHT22;62994;52.126;5.596;2023-08-17T06:37:16;19.00;99.90
17565;DHT22;62994;52.126;5.596;2023-08-17T06:39:49;19.00;99.90
17565;DHT22;62994;52.126;5.596;2023-08-17T06:42:16;19.00;99.90
17565;DHT22;62994;52.126;5.596;2023-08-17T06:44:43;19.10;99.90
17565;DHT22;62994;52.126;5.596;2023-08-17T06:47:11;19.10;99.90
17565;DHT22;62994;52.126;5.596;2023-08-17T06:49:44;19.20;99.90
17565;DHT22;62994;52.126;5.596;2023-08-17T06:52:11;19.30;99.90
17565;DHT22;62994;52.126;5.596;2023-08-17T06:54:38;19.20;99.90
17565;DHT22;62994;52.126;5.596;2023-08-17T06:57:07;19.30;99.90
17565;DHT22;62994;52.126;5.596;2023-08-17T06:59:34;19.30;99.90
17565;DHT22;62994;52.126;5.596;2023-08-17T07:02:01;19.30;99.90
17565;DHT22;62994;52.126;5.596;2023-08-17T07:04:33;19.40;99.90
17565;DHT22;62994;52.126;5.596;2023-08-17T07:07:00;19.40;99.90
17565;DHT22;62994;52.126;5.596;2023-08-17T07:09:32;19.50;99.90
17565;DHT22;62994;52.126;5.596;2023-08-17T07:11:59;19.50;99.90
17565;DHT22;62994;52.126;5.596;2023-08-17T07:14:26;19.50;99.90
17565;DHT22;62994;52.126;5.596;2023-08-17T07:16:58;19.60;99.90
17565;DHT22;62994;52.126;5.596;2023-08-17T07:19:25;19.50;99.90
17565;DHT22;62994;52.126;5.596;2023-08-17T07:21:57;19.50;99.90
17565;DHT22;62994;52.126;5.596;2023-08-17T07:24:24;19.60;99.90
17565;DHT22;62994;52.126;5.596;2023-08-17T07:26:56;19.70;99.90
17565;DHT22;62994;52.126;5.596;2023-08-17T07:29:26;19.70;99.90
17565;DHT22;62994;52.126;5.596;2023-08-17T07:31:53;19.70;99.90
17565;DHT22;62994;52.126;5.596;2023-08-17T07:34:25;19.70;99.90
17565;DHT22;62994;52.126;5.596;2023-08-17T07:36:57;19.80;99.90
17565;DHT22;62994;52.126;5.596;2023-08-17T07:39:24;19.80;99.90
17565;DHT22;62994;52.126;5.596;2023-08-17T07:41:51;19.90;99.90
17565;DHT22;62994;52.126;5.596;2023-08-17T07:44:19;19.90;99.90
17565;DHT22;62994;52.126;5.596;2023-08-17T07:46:46;19.90;99.90
17565;DHT22;62994;52.126;5.596;2023-08-17T07:49:13;19.90;99.90
17565;DHT22;62994;52.126;5.596;2023-08-17T07:51:42;19.90;99.90
17565;DHT22;62994;52.126;5.596;2023-08-17T07:54:11;20.00;99.90
17565;DHT22;62994;52.126;5.596;2023-08-17T07:56:42;20.00;99.90
17565;DHT22;62994;52.126;5.596;2023-08-17T07:59:10;20.10;99.90
17565;DHT22;62994;52.126;5.596;2023-08-17T08:01:41;20.10;99.90
17565;DHT22;62994;52.126;5.596;2023-08-17T08:04:08;20.20;99.90
17565;DHT22;62994;52.126;5.596;2023-08-17T08:06:35;20.20;99.90
17565;DHT22;62994;52.126;5.596;2023-08-17T08:09:02;20.20;99.90
17565;DHT22;62994;52.126;5.596;2023-08-17T08:11:34;20.20;99.90
17565;DHT22;62994;52.126;5.596;2023-08-17T08:14:01;20.30;99.90
17565;DHT22;62994;52.126;5.596;2023-08-17T08:16:28;20.40;99.90
17565;DHT22;62994;52.126;5.596;2023-08-17T08:18:56;20.40;99.90
17565;DHT22;62994;52.126;5.596;2023-08-17T08:21:24;20.50;99.90
17565;DHT22;62994;52.126;5.596;2023-08-17T08:23:53;20.40;99.90
17565;DHT22;62994;52.126;5.596;2023-08-17T08:26:25;20.50;99.90
17565;DHT22;62994;52.126;5.596;2023-08-17T08:28:57;20.60;99.90
17565;DHT22;62994;52.126;5.596;2023-08-17T08:31:24;20.60;99.90
17565;DHT22;62994;52.126;5.596;2023-08-17T08:33:51;20.70;99.90
17565;DHT22;62994;52.126;5.596;2023-08-17T08:36:19;20.80;99.90
17565;DHT22;62994;52.126;5.596;2023-08-17T08:38:48;20.80;99.90
17565;DHT22;62994;52.126;5.596;2023-08-17T08:41:17;20.80;99.90
17565;DHT22;62994;52.126;5.596;2023-08-17T08:43:44;20.90;99.90
17565;DHT22;62994;52.126;5.596;2023-08-17T08:46:14;20.90;99.90
17565;DHT22;62994;52.126;5.596;2023-08-17T08:48:45;20.90;99.90
17565;DHT22;62994;52.126;5.596;2023-08-17T08:51:17;20.90;99.90
17565;DHT22;62994;52.126;5.596;2023-08-17T08:53:59;20.90;99.90
17565;DHT22;62994;52.126;5.596;2023-08-17T08:56:30;20.90;99.90
17565;DHT22;62994;52.126;5.596;2023-08-17T08:59:00;20.90;99.90
17565;DHT22;62994;52.126;5.596;2023-08-17T09:01:30;21.00;99.90
17565;DHT22;62994;52.126;5.596;2023-08-17T09:03:59;21.00;99.90
17565;DHT22;62994;52.126;5.596;2023-08-17T09:06:27;21.00;99.90
17565;DHT22;62994;52.126;5.596;2023-08-17T09:08:57;20.90;99.90
17565;DHT22;62994;52.126;5.596;2023-08-17T09:11:26;20.90;99.90
17565;DHT22;62994;52.126;5.596;2023-08-17T09:13:54;20.90;99.90
17565;DHT22;62994;52.126;5.596;2023-08-17T09:16:21;20.90;99.90
17565;DHT22;62994;52.126;5.596;2023-08-17T09:18:52;20.90;99.90
17565;DHT22;62994;52.126;5.596;2023-08-17T09:21:25;20.80;99.90
17565;DHT22;62994;52.126;5.596;2023-08-17T09:23:54;20.90;99.90
17565;DHT22;62994;52.126;5.596;2023-08-17T09:26:30;20.90;99.90
17565;DHT22;62994;52.126;5.596;2023-08-17T09:28:59;20.90;99.90
17565;DHT22;62994;52.126;5.596;2023-08-17T09:31:31;21.00;99.90
17565;DHT22;62994;52.126;5.596;2023-08-17T09:34:05;21.00;99.90
17565;DHT22;62994;52.126;5.596;2023-08-17T09:36:35;21.00;99.90
17565;DHT22;62994;52.126;5.596;2023-08-17T09:39:03;21.10;99.90
17565;DHT22;62994;52.126;5.596;2023-08-17T09:41:30;21.10;99.90
17565;DHT22;62994;52.126;5.596;2023-08-17T09:43:57;21.20;99.90
17565;DHT22;62994;52.126;5.596;2023-08-17T09:46:25;21.30;99.90
17565;DHT22;62994;52.126;5.596;2023-08-17T09:48:55;21.30;99.90
17565;DHT22;62994;52.126;5.596;2023-08-17T09:51:27;21.30;99.90
17565;DHT22;62994;52.126;5.596;2023-08-17T09:53:57;21.30;99.90
17565;DHT22;62994;52.126;5.596;2023-08-17T09:56:27;21.20;99.90
17565;DHT22;62994;52.126;5.596;2023-08-17T09:58:59;21.30;99.90
17565;DHT22;62994;52.126;5.596;2023-08-17T10:01:29;21.30;99.90
17565;DHT22;62994;52.126;5.596;2023-08-17T10:03:57;21.40;99.90
17565;DHT22;62994;52.126;5.596;2023-08-17T10:06:33;21.30;99.90
17565;DHT22;62994;52.126;5.596;2023-08-17T10:09:06;21.40;99.90
17565;DHT22;62994;52.126;5.596;2023-08-17T10:11:35;21.40;99.90
17565;DHT22;62994;52.126;5.596;2023-08-17T10:14:09;21.40;99.90
17565;DHT22;62994;52.126;5.596;2023-08-17T10:16:51;21.40;99.90
17565;DHT22;62994;52.126;5.596;2023-08-17T10:19:25;21.40;99.90
17565;DHT22;62994;52.126;5.596;2023-08-17T10:22:03;21.40;99.90
17565;DHT22;62994;52.126;5.596;2023-08-17T10:24:32;21.50;99.90
17565;DHT22;62994;52.126;5.596;2023-08-17T10:27:02;21.50;99.90
17565;DHT22;62994;52.126;5.596;2023-08-17T10:29:30;21.40;99.90
17565;DHT22;62994;52.126;5.596;2023-08-17T10:31:59;21.40;99.90
17565;DHT22;62994;52.126;5.596;2023-08-17T10:34:28;21.50;99.90
17565;DHT22;62994;52.126;5.596;2023-08-17T10:36:58;21.50;99.90
17565;DHT22;62994;52.126;5.596;2023-08-17T10:39:31;21.60;99.90
17565;DHT22;62994;52.126;5.596;2023-08-17T10:42:04;21.60;99.90
17565;DHT22;62994;52.126;5.596;2023-08-17T10:44:43;21.60;99.90
17565;DHT22;62994;52.126;5.596;2023-08-17T10:47:21;21.60;99.90
17565;DHT22;62994;52.126;5.596;2023-08-17T10:49:49;21.50;99.90
17565;DHT22;62994;52.126;5.596;2023-08-17T10:52:25;21.50;99.90
17565;DHT22;62994;52.126;5.596;2023-08-17T10:54:53;21.50;99.90
17565;DHT22;62994;52.126;5.596;2023-08-17T10:57:33;21.40;99.90
17565;DHT22;62994;52.126;5.596;2023-08-17T11:00:10;21.40;99.90
17565;DHT22;62994;52.126;5.596;2023-08-17T11:02:57;21.40;99.90
17565;DHT22;62994;52.126;5.596;2023-08-17T11:05:39;21.40;99.90
17565;DHT22;62994;52.126;5.596;2023-08-17T11:08:10;21.40;99.90
17565;DHT22;62994;52.126;5.596;2023-08-17T11:10:48;21.50;99.90
17565;DHT22;62994;52.126;5.596;2023-08-17T11:13:16;21.50;99.90
17565;DHT22;62994;52.126;5.596;2023-08-17T11:15:46;21.50;99.90
17565;DHT22;62994;52.126;5.596;2023-08-17T11:18:24;21.60;99.90
17565;DHT22;62994;52.126;5.596;2023-08-17T11:20:55;21.70;99.90
17565;DHT22;62994;52.126;5.596;2023-08-17T11:23:24;21.70;99.90
17565;DHT22;62994;52.126;5.596;2023-08-17T11:25:53;21.70;99.90
17565;DHT22;62994;52.126;5.596;2023-08-17T11:28:21;21.80;99.90
17565;DHT22;62994;52.126;5.596;2023-08-17T11:31:03;21.80;99.90
17565;DHT22;62994;52.126;5.596;2023-08-17T11:33:31;21.90;99.90
17565;DHT22;62994;52.126;5.596;2023-08-17T11:35:59;21.90;99.90
17565;DHT22;62994;52.126;5.596;2023-08-17T11:38:30;21.90;99.90
17565;DHT22;62994;52.126;5.596;2023-08-17T11:40:58;22.00;99.90
17565;DHT22;62994;52.126;5.596;2023-08-17T11:43:25;22.00;99.90
17565;DHT22;62994;52.126;5.596;2023-08-17T11:45:53;22.10;99.90
17565;DHT22;62994;52.126;5.596;2023-08-17T11:48:21;22.20;99.90
17565;DHT22;62994;52.126;5.596;2023-08-17T11:50:50;22.20;99.90
17565;DHT22;62994;52.126;5.596;2023-08-17T11:53:17;22.30;99.90
17565;DHT22;62994;52.126;5.596;2023-08-17T11:55:46;22.40;99.90
17565;DHT22;62994;52.126;5.596;2023-08-17T11:58:13;22.40;99.90
17565;DHT22;62994;52.126;5.596;2023-08-17T12:00:48;22.40;99.90
17565;DHT22;62994;52.126;5.596;2023-08-17T12:03:16;22.40;99.90
17565;DHT22;62994;52.126;5.596;2023-08-17T12:05:44;22.30;99.90
17565;DHT22;62994;52.126;5.596;2023-08-17T12:08:13;22.40;99.90
17565;DHT22;62994;52.126;5.596;2023-08-17T12:10:41;22.50;99.90
17565;DHT22;62994;52.126;5.596;2023-08-17T12:13:13;22.50;99.90
17565;DHT22;62994;52.126;5.596;2023-08-17T12:15:40;22.50;99.90
17565;DHT22;62994;52.126;5.596;2023-08-17T12:18:07;22.50;99.90
17565;DHT22;62994;52.126;5.596;2023-08-17T12:20:35;22.60;99.90
17565;DHT22;62994;52.126;5.596;2023-08-17T12:23:07;22.60;99.90
17565;DHT22;62994;52.126;5.596;2023-08-17T12:25:37;22.60;99.90
17565;DHT22;62994;52.126;5.596;2023-08-17T12:28:07;22.60;99.90
17565;DHT22;62994;52.126;5.596;2023-08-17T12:30:39;22.60;99.90
17565;DHT22;62994;52.126;5.596;2023-08-17T12:33:06;22.60;99.90
17565;DHT22;62994;52.126;5.596;2023-08-17T12:35:35;22.60;99.90
17565;DHT22;62994;52.126;5.596;2023-08-17T12:38:03;22.70;99.90
17565;DHT22;62994;52.126;5.596;2023-08-17T12:40:34;22.60;99.90
17565;DHT22;62994;52.126;5.596;2023-08-17T12:43:01;22.60;99.90
17565;DHT22;62994;52.126;5.596;2023-08-17T12:45:28;22.60;99.90
17565;DHT22;62994;52.126;5.596;2023-08-17T12:47:57;22.70;99.90
17565;DHT22;62994;52.126;5.596;2023-08-17T12:50:24;22.60;99.90
17565;DHT22;62994;52.126;5.596;2023-08-17T12:52:51;22.70;99.90
17565;DHT22;62994;52.126;5.596;2023-08-17T12:55:18;22.70;99.90
17565;DHT22;62994;52.126;5.596;2023-08-17T12:57:46;22.70;99.90
17565;DHT22;62994;52.126;5.596;2023-08-17T13:00:17;22.70;99.90
17565;DHT22;62994;52.126;5.596;2023-08-17T13:02:50;22.80;99.90
17565;DHT22;62994;52.126;5.596;2023-08-17T13:05:18;22.80;99.90
17565;DHT22;62994;52.126;5.596;2023-08-17T13:07:45;22.80;99.90
17565;DHT22;62994;52.126;5.596;2023-08-17T13:10:13;22.80;99.90
17565;DHT22;62994;52.126;5.596;2023-08-17T13:12:40;22.80;99.90
17565;DHT22;62994;52.126;5.596;2023-08-17T13:15:08;22.80;99.90
17565;DHT22;62994;52.126;5.596;2023-08-17T13:17:38;22.80;99.90
17565;DHT22;62994;52.126;5.596;2023-08-17T13:20:06;22.70;99.90
17565;DHT22;62994;52.126;5.596;2023-08-17T13:22:36;22.70;99.90
17565;DHT22;62994;52.126;5.596;2023-08-17T13:25:05;22.60;99.90
17565;DHT22;62994;52.126;5.596;2023-08-17T13:27:33;22.60;99.90
17565;DHT22;62994;52.126;5.596;2023-08-17T13:30:00;22.60;99.90
17565;DHT22;62994;52.126;5.596;2023-08-17T13:32:30;22.50;99.90
17565;DHT22;62994;52.126;5.596;2023-08-17T13:35:02;22.50;99.90
17565;DHT22;62994;52.126;5.596;2023-08-17T13:37:31;22.60;99.90
17565;DHT22;62994;52.126;5.596;2023-08-17T13:40:00;22.60;99.90
17565;DHT22;62994;52.126;5.596;2023-08-17T13:42:29;22.60;99.90
17565;DHT22;62994;52.126;5.596;2023-08-17T13:44:56;22.60;99.90
17565;DHT22;62994;52.126;5.596;2023-08-17T13:47:25;22.70;99.90
17565;DHT22;62994;52.126;5.596;2023-08-17T13:49:57;22.70;99.90
17565;DHT22;62994;52.126;5.596;2023-08-17T13:52:24;22.70;99.90
17565;DHT22;62994;52.126;5.596;2023-08-17T13:54:52;22.70;99.90
17565;DHT22;62994;52.126;5.596;2023-08-17T13:57:21;22.60;99.90
17565;DHT22;62994;52.126;5.596;2023-08-17T13:59:48;22.70;99.90
17565;DHT22;62994;52.126;5.596;2023-08-17T14:02:15;22.70;99.90
17565;DHT22;62994;52.126;5.596;2023-08-17T14:04:42;22.80;99.90
17565;DHT22;62994;52.126;5.596;2023-08-17T14:07:10;22.90;99.90
17565;DHT22;62994;52.126;5.596;2023-08-17T14:09:39;22.90;99.90
17565;DHT22;62994;52.126;5.596;2023-08-17T14:12:09;23.10;99.90
17565;DHT22;62994;52.126;5.596;2023-08-17T14:14:43;23.10;99.90
17565;DHT22;62994;52.126;5.596;2023-08-17T14:17:11;23.10;99.90
17565;DHT22;62994;52.126;5.596;2023-08-17T14:19:38;23.10;99.90
17565;DHT22;62994;52.126;5.596;2023-08-17T14:22:05;23.10;99.90
17565;DHT22;62994;52.126;5.596;2023-08-17T14:24:32;23.10;99.90
17565;DHT22;62994;52.126;5.596;2023-08-17T14:27:01;22.90;99.90
17565;DHT22;62994;52.126;5.596;2023-08-17T14:29:30;22.90;99.90
17565;DHT22;62994;52.126;5.596;2023-08-17T14:32:01;22.90;99.90
17565;DHT22;62994;52.126;5.596;2023-08-17T14:34:31;22.90;99.90
17565;DHT22;62994;52.126;5.596;2023-08-17T14:37:01;22.80;99.90
17565;DHT22;62994;52.126;5.596;2023-08-17T14:39:28;22.80;99.90
17565;DHT22;62994;52.126;5.596;2023-08-17T14:41:55;22.80;99.90
17565;DHT22;62994;52.126;5.596;2023-08-17T14:44:24;22.70;99.90
17565;DHT22;62994;52.126;5.596;2023-08-17T14:46:58;22.80;99.90
17565;DHT22;62994;52.126;5.596;2023-08-17T14:49:25;22.90;99.90
17565;DHT22;62994;52.126;5.596;2023-08-17T14:51:52;22.90;99.90
17565;DHT22;62994;52.126;5.596;2023-08-17T14:54:20;23.00;99.90
17565;DHT22;62994;52.126;5.596;2023-08-17T14:56:47;23.00;99.90
17565;DHT22;62994;52.126;5.596;2023-08-17T14:59:14;23.10;99.90
17565;DHT22;62994;52.126;5.596;2023-08-17T15:01:48;23.20;99.90
17565;DHT22;62994;52.126;5.596;2023-08-17T15:04:17;23.30;99.90
17565;DHT22;62994;52.126;5.596;2023-08-17T15:06:45;23.40;99.90
17565;DHT22;62994;52.126;5.596;2023-08-17T15:09:14;23.40;99.90
17565;DHT22;62994;52.126;5.596;2023-08-17T15:11:41;23.40;99.90
17565;DHT22;62994;52.126;5.596;2023-08-17T15:14:09;23.40;99.90
17565;DHT22;62994;52.126;5.596;2023-08-17T15:16:36;23.40;99.90
17565;DHT22;62994;52.126;5.596;2023-08-17T15:19:04;23.40;99.90
17565;DHT22;62994;52.126;5.596;2023-08-17T15:21:32;23.50;99.90
17565;DHT22;62994;52.126;5.596;2023-08-17T15:24:04;23.50;99.90
17565;DHT22;62994;52.126;5.596;2023-08-17T15:26:31;23.50;99.90
17565;DHT22;62994;52.126;5.596;2023-08-17T15:29:04;23.50;99.90
17565;DHT22;62994;52.126;5.596;2023-08-17T15:31:31;23.40;99.90
17565;DHT22;62994;52.126;5.596;2023-08-17T15:33:58;23.40;99.90
17565;DHT22;62994;52.126;5.596;2023-08-17T15:36:25;23.40;99.90
17565;DHT22;62994;52.126;5.596;2023-08-17T15:38:54;23.40;99.90
17565;DHT22;62994;52.126;5.596;2023-08-17T15:41:21;23.40;99.90